Time;durP1;ratioP1;P1;durP2;ratioP2;P2;SDS_P1;SDS_P2;PMS_P1;PMS_P2;Temp;Humidity;BMP_temperature;BMP_pressure;BME280_temperature;BME280_humidity;BME280_pressure;Samples;Min_cycle;Max_cycle;Signal;HPM_P1;HPM_P2
2022/12/14 00:01:58;;;;;;;42.13;22.52;;;;;;;;;;5117610;27;20129;-87
2022/12/14 00:04:25;;;;;;;41.75;24.73;;;;;;;;;;5134865;27;20043;-86
2022/12/14 00:06:51;;;;;;;41.47;22.83;;;;;;;;;;5117940;27;20039;-92
2022/12/14 00:09:17;;;;;;;43.25;23.85;;;;;;;;;;5134807;27;20046;-90
2022/12/14 00:11:43;;;;;;;36.47;20.98;;;;;;;;;;5117860;27;20126;-90
2022/12/14 00:14:09;;;;;;;44.60;23.27;;;;;;;;;;5117627;27;20088;-86
2022/12/14 00:16:35;;;;;;;42.20;22.77;;;;;;;;;;5117279;27;20050;-88
2022/12/14 00:19:04;;;;;;;40.13;22.38;;;;;;;;;;5117960;27;20067;-91
2022/12/14 00:21:30;;;;;;;36.67;23.02;;;;;;;;;;5117530;27;20094;-87
2022/12/14 00:23:57;;;;;;;35.40;21.05;;;;;;;;;;5134766;27;20043;-89
2022/12/14 00:26:25;;;;;;;34.88;20.48;;;;;;;;;;5117541;27;20066;-91
2022/12/14 00:28:52;;;;;;;41.22;22.77;;;;;;;;;;5117422;27;20043;-92
2022/12/14 00:31:19;;;;;;;38.53;21.38;;;;;;;;;;5117197;27;20046;-92
2022/12/14 00:33:45;;;;;;;38.78;22.38;;;;;;;;;;5117241;27;20251;-90
2022/12/14 00:36:11;;;;;;;35.75;19.98;;;;;;;;;;5134562;27;20081;-90
2022/12/14 00:38:38;;;;;;;36.90;22.10;;;;;;;;;;5133590;27;20057;-84
2022/12/14 00:41:04;;;;;;;40.88;21.90;;;;;;;;;;5116303;27;20047;-85
2022/12/14 00:43:30;;;;;;;43.15;21.63;;;;;;;;;;5116295;27;20130;-85
2022/12/14 00:45:56;;;;;;;38.33;23.02;;;;;;;;;;5116338;27;20079;-86
2022/12/14 00:48:23;;;;;;;42.95;21.90;;;;;;;;;;5099449;27;20543;-84
2022/12/14 00:50:50;;;;;;;36.35;21.40;;;;;;;;;;5099308;27;20039;-83
2022/12/14 00:53:16;;;;;;;40.47;22.92;;;;;;;;;;5133723;27;20514;-84
2022/12/14 00:55:44;;;;;;;38.22;21.63;;;;;;;;;;5133319;27;20083;-87
2022/12/14 00:58:12;;;;;;;35.92;20.63;;;;;;;;;;5116385;27;20047;-84
2022/12/14 01:00:38;;;;;;;35.58;18.88;;;;;;;;;;5116626;27;20047;-84
2022/12/14 01:03:05;;;;;;;34.22;19.95;;;;;;;;;;5116862;27;20050;-85
2022/12/14 01:05:33;;;;;;;44.85;21.02;;;;;;;;;;5132419;27;20050;-87
2022/12/14 01:07:59;;;;;;;40.95;21.95;;;;;;;;;;5115947;27;20039;-85
2022/12/14 01:10:25;;;;;;;35.00;19.77;;;;;;;;;;5115984;27;20039;-83
2022/12/14 01:12:51;;;;;;;31.88;19.50;;;;;;;;;;5115967;27;20399;-85
2022/12/14 01:15:17;;;;;;;37.38;20.50;;;;;;;;;;5115553;27;20127;-87
2022/12/14 01:17:43;;;;;;;36.38;19.48;;;;;;;;;;5098893;27;20081;-86
2022/12/14 01:20:09;;;;;;;31.65;18.00;;;;;;;;;;5115825;27;20050;-87
2022/12/14 01:22:36;;;;;;;39.45;20.40;;;;;;;;;;5099163;27;20054;-83
2022/12/14 01:25:02;;;;;;;34.97;20.83;;;;;;;;;;5099036;27;20376;-84
2022/12/14 01:27:29;;;;;;;38.28;20.70;;;;;;;;;;5098545;27;20054;-84
2022/12/14 01:29:55;;;;;;;40.50;20.52;;;;;;;;;;5115394;27;20040;-87
2022/12/14 01:32:21;;;;;;;42.65;21.63;;;;;;;;;;5098548;27;20043;-87
2022/12/14 01:34:47;;;;;;;36.90;20.50;;;;;;;;;;5132914;27;20440;-88
2022/12/14 01:37:13;;;;;;;36.40;20.70;;;;;;;;;;5115327;27;20135;-85
2022/12/14 01:39:39;;;;;;;37.75;20.88;;;;;;;;;;5098601;27;20046;-83
2022/12/14 01:42:12;;;;;;;38.35;20.15;;;;;;;;;;5115415;27;20039;-83
2022/12/14 01:44:38;;;;;;;42.35;21.75;;;;;;;;;;5115222;27;20054;-84
2022/12/14 01:47:07;;;;;;;34.60;21.35;;;;;;;;;;5115575;27;20047;-85
2022/12/14 01:49:42;;;;;;;40.25;21.00;;;;;;;;;;5132255;27;20047;-87
2022/12/14 01:52:08;;;;;;;39.15;20.05;;;;;;;;;;5115920;27;20040;-83
2022/12/14 01:54:35;;;;;;;39.70;21.98;;;;;;;;;;5115680;27;20541;-86
2022/12/14 01:57:01;;;;;;;38.83;21.73;;;;;;;;;;5132800;27;20047;-85
2022/12/14 01:59:29;;;;;;;42.30;21.92;;;;;;;;;;5115628;27;20043;-87
2022/12/14 02:01:57;;;;;;;36.90;21.92;;;;;;;;;;5115244;27;20047;-83
2022/12/14 02:04:23;;;;;;;39.13;21.00;;;;;;;;;;5115693;27;20047;-85
2022/12/14 02:06:51;;;;;;;46.10;22.02;;;;;;;;;;5115801;27;20035;-85
2022/12/14 02:09:20;;;;;;;43.22;23.08;;;;;;;;;;5115534;27;20054;-84
2022/12/14 02:11:46;;;;;;;47.50;21.60;;;;;;;;;;5115256;28;20039;-86
2022/12/14 02:14:12;;;;;;;38.30;21.02;;;;;;;;;;5132604;27;20100;-90
2022/12/14 02:16:39;;;;;;;41.53;22.58;;;;;;;;;;5132526;27;20471;-92
2022/12/14 02:19:05;;;;;;;40.25;20.80;;;;;;;;;;5115791;28;20050;-88
2022/12/14 02:21:46;;;;;;;37.22;19.73;;;;;;;;;;5115274;28;20158;-91
2022/12/14 02:24:12;;;;;;;39.58;20.42;;;;;;;;;;5132532;27;20055;-84
2022/12/14 02:27:00;;;;;;;35.28;21.10;;;-4.60;99.90;;;;;;5115747;28;20043;-90
2022/12/14 02:29:26;;;;;;;35.10;20.70;;;;;;;;;;5132533;27;20039;-90
2022/12/14 02:31:55;;;;;;;41.70;21.13;;;;;;;;;;5114462;27;20544;-87
2022/12/14 02:34:40;;;;;;;35.85;20.50;;;;;;;;;;5114781;27;20050;-87
2022/12/14 02:37:29;;;;;;;39.53;20.50;;;;;;;;;;5114587;28;20043;-83
2022/12/14 02:40:00;;;;;;;38.63;21.83;;;;;;;;;;5132289;28;20040;-84
2022/12/14 02:42:45;;;;;;;38.10;21.25;;;;;;;;;;5131791;27;20672;-85
2022/12/14 02:45:31;;;;;;;40.00;22.45;;;;;;;;;;5114260;28;20050;-85
2022/12/14 02:47:57;;;;;;;45.60;23.85;;;;;;;;;;5131532;28;20043;-87
2022/12/14 02:50:26;;;;;;;38.95;21.00;;;;;;;;;;5131746;28;20493;-84
2022/12/14 02:52:52;;;;;;;38.10;21.60;;;;;;;;;;5114402;28;20047;-84
2022/12/14 02:55:36;;;;;;;35.75;20.70;;;;;;;;;;5114245;28;20039;-82
2022/12/14 02:58:09;;;;;;;41.22;22.60;;;;;;;;;;5114462;28;20402;-82
2022/12/14 03:00:36;;;;;;;38.55;21.17;;;;;;;;;;5114271;28;20049;-84
2022/12/14 03:03:04;;;;;;;42.40;20.80;;;;;;;;;;5114222;28;20075;-84
2022/12/14 03:05:30;;;;;;;35.05;22.55;;;;;;;;;;5114436;28;20050;-83
2022/12/14 03:08:00;;;;;;;40.25;20.85;;;;;;;;;;5114330;28;20078;-82
2022/12/14 03:10:52;;;;;;;52.75;23.98;;;;;;;;;;5131557;27;20066;-83
2022/12/14 03:13:36;;;;;;;41.58;22.23;;;;;;;;;;5111466;28;20124;-83
2022/12/14 03:16:07;;;;;;;41.17;20.52;;;;;;;;;;5130864;28;20081;-83
2022/12/14 03:18:38;;;;;;;38.47;20.77;;;;;;;;;;5114027;28;20050;-82
2022/12/14 03:21:07;;;;;;;39.15;20.85;;;;;;;;;;5131018;27;20410;-83
2022/12/14 03:23:34;;;;;;;38.05;23.83;;;;;;;;;;5131081;28;20051;-82
2022/12/14 03:26:00;;;;;;;33.70;18.08;;;;;;;;;;5113771;28;20531;-82
2022/12/14 03:28:30;;;;;;;36.92;20.42;;;;;;;;;;5132266;27;20098;-83
2022/12/14 03:30:59;;;;;;;34.92;19.35;;;;;;;;;;5118037;27;20039;-81
2022/12/14 03:33:27;;;;;;;39.10;20.02;;;;;;;;;;5136482;27;20073;-83
2022/12/14 03:36:02;;;;;;;35.70;20.45;;;;;;;;;;5119062;27;20088;-81
2022/12/14 03:38:31;;;;;;;37.47;19.15;;;;;;;;;;5119163;27;20134;-81
2022/12/14 03:41:03;;;;;;;37.72;19.52;;;;;;;;;;5136816;27;20043;-81
2022/12/14 03:43:29;;;;;;;38.28;20.27;;;;;;;;;;5134825;27;20043;-83
2022/12/14 03:45:58;;;;;;;31.60;17.65;;;;;;;;;;5134684;27;20042;-81
2022/12/14 03:48:34;;;;;;;33.65;19.70;;;;;;;;;;5117571;27;20129;-81
2022/12/14 03:51:10;;;;;;;34.92;18.92;;;;;;;;;;5117362;27;20043;-81
2022/12/14 03:53:37;;;;;;;35.40;18.85;;;;;;;;;;5117219;27;20100;-81
2022/12/14 03:56:28;;;;;;;31.48;20.00;;;;;;;;;;5117160;27;20091;-81
2022/12/14 03:59:01;;;;;;;33.63;18.25;;;;;;;;;;5117245;27;20039;-81
2022/12/14 04:01:33;;;;;;;35.65;19.10;;;;;;;;;;5117430;27;20406;-81
2022/12/14 04:04:03;;;;;;;38.08;20.35;;;;;;;;;;5134234;27;20074;-81
2022/12/14 04:06:45;;;;;;;35.50;20.70;;;;;;;;;;5134421;27;20495;-81
2022/12/14 04:09:17;;;;;;;34.40;19.80;;;;;;;;;;5133995;27;20047;-81
2022/12/14 04:20:09;;;;;;;39.13;20.45;;;;;;;;;;5133795;27;20054;-81
2022/12/14 04:22:38;;;;;;;39.17;20.00;;;;;;;;;;5116226;27;20503;-82
2022/12/14 04:31:09;;;;;;;37.38;17.73;;;;;;;;;;5133703;27;20046;-81
2022/12/14 04:33:46;;;;;;;29.10;16.92;;;;;;;;;;5133874;27;20047;-82
2022/12/14 04:36:18;;;;;;;32.72;19.00;;;;;;;;;;5133636;27;20042;-82
2022/12/14 04:38:46;;;;;;;31.17;19.38;;;;;;;;;;5133952;27;20047;-82
2022/12/14 04:41:14;;;;;;;34.85;18.55;;;;;;;;;;5133469;27;20054;-81
2022/12/14 04:43:43;;;;;;;29.23;18.80;;;;;;;;;;5116271;27;20074;-82
2022/12/14 04:46:12;;;;;;;36.10;19.38;;;;;;;;;;5133139;27;20088;-81
2022/12/14 04:48:44;;;;;;;35.42;19.52;;;;;;;;;;5116413;27;20079;-81
2022/12/14 04:51:14;;;;;;;37.55;19.10;;;;;;;;;;5133191;27;20051;-81
2022/12/14 04:53:43;;;;;;;42.33;21.77;;;;;;;;;;5133107;27;20043;-82
2022/12/14 04:56:19;;;;;;;37.25;19.83;;;;;;;;;;5133338;27;20050;-81
2022/12/14 04:58:45;;;;;;;33.08;20.27;;;;;;;;;;5133220;27;20047;-82
2022/12/14 05:01:23;;;;;;;44.28;22.67;;;;;;;;;;5116154;27;20422;-83
2022/12/14 05:04:08;;;;;;;44.88;20.33;;;;;;;;;;5116278;27;20039;-84
2022/12/14 05:06:46;;;;;;;26.73;17.02;;;;;;;;;;5116157;27;20479;-83
2022/12/14 05:09:32;;;;;;;34.08;18.05;;;;;;;;;;5115795;27;20828;-86
2022/12/14 05:12:06;;;;;;;35.17;19.05;;;;;;;;;;5115597;27;20042;-82
2022/12/14 05:14:38;;;;;;;36.65;20.35;;;;;;;;;;5132391;27;20050;-83
2022/12/14 05:17:05;;;;;;;42.05;18.85;;;;;;;;;;5116172;27;20034;-85
2022/12/14 05:19:32;;;;;;;36.15;19.95;;;;;;;;;;5115812;27;20031;-83
2022/12/14 05:22:00;;;;;;;33.08;16.70;;;;;;;;;;5132544;27;20384;-83
2022/12/14 05:24:26;;;;;;;34.15;18.30;;;;;;;;;;5132735;27;20126;-82
2022/12/14 05:26:52;;;;;;;30.27;17.85;;;;;;;;;;5115592;27;20047;-81
2022/12/14 05:29:18;;;;;;;30.85;18.00;;;;;;;;;;5115505;27;20064;-81
2022/12/14 05:31:44;;;;;;;33.38;18.27;;;;;;;;;;5115436;27;20103;-81
2022/12/14 05:34:10;;;;;;;33.63;18.73;;;;;;;;;;5115334;27;20074;-84
2022/12/14 05:36:36;;;;;;;32.30;19.58;;;;;;;;;;5098278;27;20062;-80
2022/12/14 05:39:03;;;;;;;33.45;17.08;;;;;;;;;;5115520;27;20181;-84
2022/12/14 05:41:29;;;;;;;32.63;17.75;;;;;;;;;;5132078;27;20050;-79
2022/12/14 05:43:55;;;;;;;35.63;18.67;;;;;;;;;;5132479;27;20118;-81
2022/12/14 05:46:21;;;;;;;38.22;21.73;;;;;;;;;;5132077;27;20407;-81
2022/12/14 05:48:47;;;;;;;32.60;18.30;;;;;;;;;;5098209;27;20091;-79
2022/12/14 05:51:13;;;;;;;42.58;18.98;;;;;;;;;;5097825;28;20051;-80
2022/12/14 05:53:39;;;;;;;32.95;19.15;;;;;;;;;;5115406;27;20046;-81
2022/12/14 05:56:06;;;;;;;25.60;16.55;;;;;;;;;;5114772;27;20512;-80
2022/12/14 05:58:33;;;;;;;37.28;18.60;;;;;;;;;;5115326;27;20035;-79
2022/12/14 06:01:04;;;;;;;33.33;18.13;;;;;;;;;;5131849;27;20042;-80
2022/12/14 06:03:30;;;;;;;31.25;17.88;;;;;;;;;;5115129;27;20047;-79
2022/12/14 06:06:00;;;;;;;34.97;19.13;;;;;;;;;;5131971;27;20616;-79
2022/12/14 06:08:27;;;;;;;33.80;17.83;;;;;;;;;;5114953;27;20055;-80
2022/12/14 06:11:00;;;;;;;40.00;19.60;;;;;;;;;;5097884;27;20039;-84
2022/12/14 06:13:26;;;;;;;37.97;19.58;;;;;;;;;;5132634;27;20136;-86
2022/12/14 06:15:52;;;;;;;42.05;20.40;;;;;;;;;;5098537;27;20395;-81
2022/12/14 06:18:18;;;;;;;43.67;21.17;;;;;;;;;;5115158;28;20039;-79
2022/12/14 06:20:44;;;;;;;34.70;18.00;;;;;;;;;;5114724;27;20039;-80
2022/12/14 06:23:11;;;;;;;38.10;18.13;;;;;;;;;;5114755;28;20047;-80
2022/12/14 06:25:37;;;;;;;43.60;20.20;;;;;;;;;;5114954;28;20104;-80
2022/12/14 06:28:03;;;;;;;34.95;19.88;;;;;;;;;;5132026;28;20521;-79
2022/12/14 06:30:29;;;;;;;32.53;17.85;;;;;;;;;;5114731;28;20437;-79
2022/12/14 06:32:55;;;;;;;33.95;18.25;;;;;;;;;;5114676;28;20046;-79
2022/12/14 06:35:21;;;;;;;36.63;20.02;;;;;;;;;;5114766;28;20039;-79
2022/12/14 06:37:47;;;;;;;37.08;20.63;;;;;;;;;;5114545;28;20043;-79
2022/12/14 06:40:13;;;;;;;34.83;18.50;;;;;;;;;;5097867;28;20043;-80
2022/12/14 06:42:39;;;;;;;36.28;20.23;;;;;;;;;;5115185;28;20081;-83
2022/12/14 06:45:05;;;;;;;37.35;19.17;;;;;;;;;;5115839;28;20097;-83
2022/12/14 06:47:31;;;;;;;39.10;21.50;;;;;;;;;;5131918;28;20043;-80
2022/12/14 06:49:58;;;;;;;36.17;19.92;;;;;;;;;;5114880;28;20135;-80
2022/12/14 06:52:24;;;;;;;38.95;19.65;;;;;;;;;;5114707;27;20035;-80
2022/12/14 06:54:50;;;;;;;37.95;19.27;;;;;;;;;;5114538;28;20100;-81
2022/12/14 06:57:16;;;;;;;43.97;20.88;;;;;;;;;;5097384;28;20035;-81
2022/12/14 06:59:42;;;;;;;45.83;20.83;;;;;;;;;;5114357;28;20043;-82
2022/12/14 07:02:09;;;;;;;45.15;21.00;;;;;;;;;;5131223;27;20503;-80
2022/12/14 07:04:35;;;;;;;41.85;20.88;;;;;;;;;;5117657;27;20082;-84
2022/12/14 07:07:01;;;;;;;45.17;22.40;;;;;;;;;;5118356;27;20047;-81
2022/12/14 07:09:27;;;;;;;53.65;24.42;;;;;;;;;;5135970;27;20051;-80
2022/12/14 07:11:59;;;;;;;40.47;21.30;;;;;;;;;;5135687;27;20050;-80
2022/12/14 07:14:25;;;;;;;53.53;24.98;;;;;;;;;;5118111;27;20390;-79
2022/12/14 07:16:52;;;;;;;45.58;20.92;;;;;;;;;;5128082;27;20383;-81
2022/12/14 07:19:18;;;;;;;43.60;20.50;;;;;;;;;;5114238;27;20047;-81
2022/12/14 07:21:44;;;;;;;36.80;21.92;;;;;;;;;;5133619;27;20055;-81
2022/12/14 07:24:11;;;;;;;36.92;20.55;;;;;;;;;;5133518;27;20047;-80
2022/12/14 07:26:37;;;;;;;41.28;20.40;;;;;;;;;;5099839;27;20053;-82
2022/12/14 07:29:03;;;;;;;34.22;19.75;;;;;;;;;;5134160;27;20543;-83
2022/12/14 07:31:29;;;;;;;47.58;22.13;;;;;;;;;;5116035;27;20050;-79
2022/12/14 07:33:56;;;;;;;40.85;21.55;;;;;;;;;;5116581;27;20039;-78
2022/12/14 07:36:24;;;;;;;46.28;23.55;;;;;;;;;;5133705;27;20491;-79
2022/12/14 07:38:51;;;;;;;46.25;24.48;;;;;;;;;;5133278;27;20078;-78
2022/12/14 07:41:24;;;;;;;47.42;20.77;;;;;;;;;;5132942;27;20130;-78
2022/12/14 07:43:51;;;;;;;36.13;18.92;;;;;;;;;;5133021;27;20062;-82
2022/12/14 07:46:19;;;;;;;35.05;19.52;;;;;;;;;;5094978;28;20407;-77
2022/12/14 07:48:46;;;;;;;40.22;21.42;;;;;;;;;;5095661;28;20403;-78
2022/12/14 07:51:13;;;;;;;48.40;21.90;;;;;;;;;;5112870;28;20480;-77
2022/12/14 07:53:39;;;;;;;51.80;24.33;;;;;;;;;;5112489;28;20096;-79
2022/12/14 07:56:06;;;;;;;50.47;24.20;;;;;;;;;;5095701;28;20061;-77
2022/12/14 07:58:33;;;;;;;46.95;22.85;;;;;;;;;;5095685;28;20031;-78
2022/12/14 08:01:12;;;;;;;53.35;24.08;;;;;;;;;;5078630;28;20044;-78
2022/12/14 08:03:43;;;;;;;45.38;22.88;;;;;;;;;;5112094;28;20105;-80
2022/12/14 08:06:10;;;;;;;48.13;24.48;;;;;;;;;;5095276;28;20201;-79
2022/12/14 08:08:36;;;;;;;43.95;23.30;;;;;;;;;;5107710;27;20043;-80
2022/12/14 08:11:03;;;;;;;40.15;21.58;;;;;;;;;;5098323;27;20050;-80
2022/12/14 08:13:29;;;;;;;33.50;21.45;;;;;;;;;;5132802;27;20043;-79
2022/12/14 08:15:55;;;;;;;49.85;22.55;;;;;;;;;;5131855;27;20565;-80
2022/12/14 08:18:22;;;;;;;42.97;22.00;;;;;;;;;;5115629;27;20115;-80
2022/12/14 08:20:49;;;;;;;42.92;22.48;;;;;;;;;;5132097;27;20375;-80
2022/12/14 08:23:15;;;;;;;46.08;22.80;;;;;;;;;;5132136;27;20537;-80
2022/12/14 08:25:41;;;;;;;47.30;23.42;;;;;;;;;;5115285;27;20452;-80
2022/12/14 08:28:07;;;;;;;40.17;21.27;;;;;;;;;;5115311;27;20046;-79
2022/12/14 08:30:37;;;;;;;53.53;22.45;;;;;;;;;;5132392;27;20130;-80
2022/12/14 08:33:03;;;;;;;41.03;22.52;;;;;;;;;;5132038;27;20503;-80
2022/12/14 08:35:32;;;;;;;46.28;22.58;;;;;;;;;;5115948;27;20039;-81
2022/12/14 08:37:58;;;;;;;55.88;23.13;;;;;;;;;;5115057;27;20466;-80
2022/12/14 08:40:24;;;;;;;42.95;21.77;;;;;;;;;;5114944;27;20051;-81
2022/12/14 08:42:51;;;;;;;40.50;23.38;;;;;;;;;;5115094;27;20138;-82
2022/12/14 08:45:18;;;;;;;45.75;20.00;;;;;;;;;;5114742;27;20047;-81
2022/12/14 08:47:45;;;;;;;44.72;21.85;;;;;;;;;;5132757;27;20042;-81
2022/12/14 08:50:12;;;;;;;53.30;23.20;;;;;;;;;;5132025;27;20050;-80
2022/12/14 08:52:38;;;;;;;45.00;22.95;;;;;;;;;;5132146;27;20043;-80
2022/12/14 08:55:10;;;;;;;49.40;20.42;;;;;;;;;;5115399;27;20057;-80
2022/12/14 08:57:36;;;;;;;44.17;20.42;;;;;;;;;;5115086;27;20058;-80
2022/12/14 09:00:02;;;;;;;40.67;20.65;;;;;;;;;;5115158;27;20043;-81
2022/12/14 09:02:28;;;;;;;41.50;21.75;;;;;;;;;;5115127;27;20384;-80
2022/12/14 09:04:54;;;;;;;44.10;22.63;;;;;;;;;;5131972;27;20043;-79
2022/12/14 09:07:20;;;;;;;42.58;21.90;;;;;;;;;;5115121;27;20047;-80
2022/12/14 09:09:46;;;;;;;51.20;23.83;;;;;;;;;;5114591;27;20483;-80
2022/12/14 09:12:12;;;;;;;47.70;23.13;;;;;;;;;;5097480;27;20079;-81
2022/12/14 09:14:38;;;;;;;46.75;21.20;;;;;;;;;;5114223;27;20182;-81
2022/12/14 09:17:04;;;;;;;40.05;21.38;;;;;;;;;;5114430;27;20130;-80
2022/12/14 09:19:31;;;;;;;43.28;22.02;;;;;;;;;;5114799;27;20115;-81
2022/12/14 09:21:58;;;;;;;35.80;20.83;;;;;;;;;;5097340;27;20063;-80
2022/12/14 09:24:24;;;;;;;38.50;19.63;;;;;;;;;;5114896;27;20074;-80
2022/12/14 09:26:50;;;;;;;44.38;20.98;;;;;;;;;;5097059;27;20062;-81
2022/12/14 09:29:18;;;;;;;42.47;23.27;;;;;;;;;;5114703;27;20232;-80
2022/12/14 09:31:45;;;;;;;39.60;22.17;;;;;;;;;;5114819;27;20074;-81
2022/12/14 09:34:11;;;;;;;46.80;22.17;;;;;;;;;;5114141;27;20128;-80
2022/12/14 09:36:37;;;;;;;46.15;22.30;;;;;;;;;;5114078;27;20046;-81
2022/12/14 09:39:03;;;;;;;43.20;23.05;;;;;;;;;;5113608;27;20055;-81
2022/12/14 09:41:32;;;;;;;54.75;23.75;;;;;;;;;;5131253;27;20047;-82
2022/12/14 09:44:28;;;;;;;46.45;24.25;;;;;;;;;;5114156;27;20039;-80
2022/12/14 09:47:05;;;;;;;43.25;21.55;;;;;;;;;;5077573;27;20052;-81
2022/12/14 09:49:32;;;;;;;41.95;22.45;;;;;;;;;;5131442;27;20127;-83
2022/12/14 09:52:00;;;;;;;39.42;21.10;;;;;;;;;;5131644;27;20047;-85
2022/12/14 09:54:28;;;;;;;39.03;20.35;;;;;;;;;;5131291;27;20050;-85
2022/12/14 09:56:57;;;;;;;46.75;19.92;;;;;;;;;;5114331;27;20108;-82
2022/12/14 09:59:26;;;;;;;37.97;20.05;;;;;;;;;;5131858;27;20125;-83
2022/12/14 10:01:52;;;;;;;37.85;21.73;;;;;;;;;;5115260;27;20038;-82
2022/12/14 10:04:43;;;;;;;42.00;20.83;;;-4.20;99.90;;;;;;5135236;27;20544;-86
2022/12/14 10:07:13;;;;;;;35.10;19.98;;;;;;;;;;5116041;27;20536;-87
2022/12/14 10:09:42;;;;;;;38.45;19.70;;;;;;;;;;5134002;27;20065;-85
2022/12/14 10:12:14;;;;;;;39.80;19.30;;;;;;;;;;5117649;27;20092;-83
2022/12/14 10:14:43;;;;;;;37.67;20.92;;;;;;;;;;5135343;27;20055;-86
2022/12/14 10:17:28;;;;;;;35.97;17.83;;;;;;;;;;5135254;27;20050;-84
2022/12/14 10:19:55;;;;;;;34.53;18.80;;;;;;;;;;5114979;28;20035;-85
2022/12/14 10:22:25;;;;;;;36.17;19.38;;;;;;;;;;5131073;27;20445;-83
2022/12/14 10:25:00;;;;;;;33.92;17.58;;;;;;;;;;5114043;28;20043;-88
2022/12/14 10:27:28;;;;;;;38.58;21.10;;;;;;;;;;5114273;28;20043;-84
2022/12/14 10:30:17;;;;;;;38.95;21.40;;;-3.70;99.90;;;;;;5131520;27;20039;-83
2022/12/14 10:32:46;;;;;;;41.75;19.50;;;;;;;;;;5132556;28;20054;-89
2022/12/14 10:35:17;;;;;;;42.95;22.05;;;;;;;;;;5114945;28;20051;-82
2022/12/14 10:37:57;;;;;;;37.15;20.05;;;;;;;;;;5115779;27;20501;-83
2022/12/14 10:40:27;;;;;;;44.92;21.52;;;;;;;;;;5117887;27;20050;-83
2022/12/14 10:43:06;;;;;;;39.95;20.95;;;;;;;;;;5117651;27;20043;-83
2022/12/14 10:45:46;;;;;;;34.13;20.77;;;;;;;;;;5134427;27;20442;-84
2022/12/14 10:48:30;;;;;;;33.67;18.95;;;;;;;;;;5134897;27;20130;-83
2022/12/14 10:51:08;;;;;;;39.33;19.55;;;;;;;;;;5118480;27;20042;-85
2022/12/14 10:53:37;;;;;;;33.70;20.00;;;;;;;;;;5117681;27;20478;-84
2022/12/14 10:56:07;;;;;;;36.85;20.58;;;;;;;;;;5117274;27;20072;-84
2022/12/14 10:58:36;;;;;;;35.35;20.05;;;;;;;;;;5115628;27;20050;-90
2022/12/14 11:01:14;;;;;;;37.22;21.15;;;;;;;;;;5134350;27;20087;-89
2022/12/14 11:03:41;;;;;;;36.50;19.20;;;;;;;;;;5116977;27;20039;-89
2022/12/14 11:06:16;;;;;;;37.33;18.40;;;;;;;;;;5117807;27;20087;-89
2022/12/14 11:08:47;;;;;;;29.52;17.05;;;;;;;;;;5117887;27;20047;-89
2022/12/14 11:11:18;;;;;;;35.33;17.30;;;;;;;;;;5117839;27;20053;-89
2022/12/14 11:14:08;;;;;;;31.70;17.45;;;;;;;;;;5117995;27;20458;-88
2022/12/14 11:16:39;;;;;;;31.08;16.70;;;;;;;;;;5090778;28;20568;-84
2022/12/14 11:19:14;;;;;;;29.90;16.23;;;;;;;;;;5114133;28;20039;-85
2022/12/14 11:21:40;;;;;;;27.85;15.70;;;;;;;;;;5096550;28;20091;-85
2022/12/14 11:24:07;;;;;;;28.55;16.20;;;;;;;;;;5098498;28;20455;-84
2022/12/14 11:26:37;;;;;;;35.45;15.52;;;;;;;;;;5097077;28;20515;-85
2022/12/14 11:29:05;;;;;;;30.67;16.05;;;;;;;;;;5114323;28;20043;-89
2022/12/14 11:31:33;;;;;;;29.13;17.02;;;;;;;;;;5115185;28;20074;-86
2022/12/14 11:34:01;;;;;;;27.67;16.42;;;;;;;;;;5097218;28;20039;-86
2022/12/14 11:36:40;;;;;;;27.65;16.42;;;;;;;;;;5115091;28;20043;-86
2022/12/14 11:39:19;;;;;;;27.75;15.18;;;;;;;;;;5097633;28;20042;-86
2022/12/14 11:41:47;;;;;;;30.13;15.02;;;;;;;;;;5113871;28;20044;-85
2022/12/14 11:44:16;;;;;;;26.13;14.93;;;;;;;;;;5096419;28;20055;-85
2022/12/14 11:46:44;;;;;;;24.90;14.80;;;;;;;;;;5116010;27;20039;-85
2022/12/14 11:49:21;;;;;;;25.80;14.40;;;;;;;;;;5133915;27;20043;-85
2022/12/14 11:52:05;;;;;;;28.73;15.05;;;;;;;;;;5135588;27;20047;-85
2022/12/14 11:54:32;;;;;;;27.00;14.32;;;;;;;;;;5116860;27;20039;-85
2022/12/14 11:57:19;;;;;;;24.90;14.02;;;;;;;;;;5133250;27;20548;-85
2022/12/14 11:59:47;;;;;;;24.02;13.88;;;;;;;;;;5133675;27;20039;-84
2022/12/14 12:02:28;;;;;;;23.85;12.57;;;;;;;;;;5134550;27;20039;-85
2022/12/14 12:05:02;;;;;;;24.70;14.45;;;;;;;;;;5116410;27;20084;-84
2022/12/14 12:07:33;;;;;;;23.13;13.27;;;;;;;;;;5116867;27;20474;-84
2022/12/14 12:10:01;;;;;;;23.77;14.45;;;;;;;;;;5134143;27;20394;-85
2022/12/14 12:12:27;;;;;;;31.92;15.05;;;;;;;;;;5134899;27;20043;-85
2022/12/14 12:14:55;;;;;;;29.80;14.75;;;;;;;;;;5115683;27;20047;-85
2022/12/14 12:17:44;;;;;;;24.45;14.02;;;;;;;;;;5134406;27;20091;-85
2022/12/14 12:20:25;;;;;;;21.85;12.95;;;;;;;;;;5107913;27;20059;-86
2022/12/14 12:22:52;;;;;;;28.02;13.88;;;;;;;;;;5134358;27;20047;-85
2022/12/14 12:25:22;;;;;;;24.55;14.35;;;;;;;;;;5133455;27;20039;-85
2022/12/14 12:27:51;;;;;;;23.77;13.23;;;;;;;;;;5116020;27;20051;-85
2022/12/14 12:30:28;;;;;;;27.35;13.55;;;;;;;;;;5134619;27;20070;-85
2022/12/14 12:32:56;;;;;;;29.92;13.20;;;;;;;;;;5134182;27;20050;-85
2022/12/14 12:35:26;;;;;;;25.88;13.43;;;;;;;;;;5116386;27;20389;-85
2022/12/14 12:37:54;;;;;;;20.60;11.75;;;;;;;;;;5133387;27;20043;-86
2022/12/14 12:40:25;;;;;;;19.58;12.02;;;;;;;;;;5115526;27;20073;-85
2022/12/14 12:43:03;;;;;;;20.00;10.82;;;;;;;;;;5134191;27;20049;-85
2022/12/14 12:45:50;;;;;;;17.88;11.93;;;;;;;;;;5115522;27;20043;-84
2022/12/14 12:48:20;;;;;;;16.80;10.98;;;;;;;;;;5115998;27;20596;-84
2022/12/14 12:50:53;;;;;;;18.85;10.63;;;;;;;;;;5134157;27;20054;-87
2022/12/14 12:53:22;;;;;;;17.40;10.88;;;;;;;;;;5115668;27;20043;-85
2022/12/14 12:55:57;;;;;;;22.60;11.95;;;;;;;;;;5133442;27;20054;-85
2022/12/14 12:58:27;;;;;;;20.15;11.18;;;;;;;;;;5115097;27;20035;-84
2022/12/14 13:00:55;;;;;;;23.63;10.63;;;;;;;;;;5114104;27;20050;-84
2022/12/14 13:03:43;;;;;;;21.77;11.43;;;;;;;;;;5132871;27;20053;-85
2022/12/14 13:06:16;;;;;;;21.50;11.40;;;;;;;;;;5115100;27;20123;-85
2022/12/14 13:08:43;;;;;;;21.05;11.70;;;;;;;;;;5114888;27;20082;-85
2022/12/14 13:11:15;;;;;;;24.92;11.80;;;;;;;;;;5115129;27;20050;-86
2022/12/14 13:13:44;;;;;;;23.40;11.40;;;;;;;;;;5131927;27;20510;-86
2022/12/14 13:16:22;;;;;;;24.00;11.10;;;;;;;;;;5114624;27;20043;-88
2022/12/14 13:18:50;;;;;;;19.50;11.18;;;;;;;;;;5132903;27;20538;-87
2022/12/14 13:21:26;;;;;;;19.25;11.02;;;;;;;;;;5116452;27;20051;-87
2022/12/14 13:23:52;;;;;;;20.85;11.00;;;;;;;;;;5115491;27;20497;-87
2022/12/14 13:26:37;;;;;;;15.75;10.35;;;;;;;;;;5098371;27;20142;-88
2022/12/14 13:29:15;;;;;;;17.92;9.68;;;;;;;;;;5114793;27;20047;-85
2022/12/14 13:31:44;;;;;;;18.05;10.10;;;;;;;;;;5133036;27;20038;-85
2022/12/14 13:34:21;;;;;;;15.73;10.02;;;;;;;;;;5114399;27;20129;-87
2022/12/14 13:37:02;;;;;;;17.00;10.73;;;;;;;;;;5132482;27;20415;-88
2022/12/14 13:39:44;;;;;;;13.13;9.07;;;;;;;;;;5131864;27;20035;-88
2022/12/14 13:42:34;;;;;;;16.83;9.98;;;-0.20;99.90;;;;;;5131557;27;20549;-87
2022/12/14 13:45:01;;;;;;;20.63;10.57;;;;;;;;;;5130910;27;20440;-87
2022/12/14 13:47:34;;;;;;;16.23;9.63;;;;;;;;;;5132937;27;20047;-87
2022/12/14 13:50:02;;;;;;;15.25;9.07;;;;;;;;;;5114638;27;20747;-86
2022/12/14 13:52:36;;;;;;;18.25;10.45;;;;;;;;;;5132328;27;20054;-88
2022/12/14 13:55:02;;;;;;;;;;;;;;;;;;5132836;27;20085;-88
2022/12/14 13:57:28;;;;;;;18.50;11.25;;;;;;;;;;5130988;27;19919;-87
2022/12/14 13:59:59;;;;;;;13.73;8.68;;;;;;;;;;5131501;27;20050;-85
2022/12/14 14:02:31;;;;;;;14.90;9.18;;;;;;;;;;5131278;27;20570;-87
2022/12/14 14:05:19;;;;;;;18.13;10.43;;;;;;;;;;5132379;27;20035;-86
2022/12/14 14:07:52;;;;;;;15.15;9.35;;;;;;;;;;5114183;27;20503;-87
2022/12/14 14:10:37;;;;;;;16.77;9.15;;;;;;;;;;5131738;27;20035;-88
2022/12/14 14:13:22;;;;;;;13.88;10.10;;;;;;;;;;5132515;27;20115;-87
2022/12/14 14:15:53;;;;;;;23.17;11.52;;;;;;;;;;5130947;27;20096;-89
2022/12/14 14:18:30;;;;;;;18.05;9.57;;;;;;;;;;5132081;27;20483;-87
2022/12/14 14:21:15;;;;;;;13.57;9.02;;;;;;;;;;5131424;27;20039;-87
2022/12/14 14:23:51;;;;;;;15.93;9.25;;;;;;;;;;5131277;27;20120;-89
2022/12/14 14:26:19;;;;;;;15.82;8.98;;;;;;;;;;5114368;28;20043;-88
2022/12/14 14:28:47;;;;;;;18.67;9.88;;;;;;;;;;5132374;27;20111;-89
2022/12/14 14:31:13;;;;;;;18.27;9.10;;;;;;;;;;5132454;27;20463;-86
2022/12/14 14:33:54;;;;;;;19.63;8.85;;;;;;;;;;5131140;27;20494;-85
2022/12/14 14:36:32;;;;;;;14.95;8.23;;;;;;;;;;5131387;28;20043;-85
2022/12/14 14:39:01;;;;;;;16.38;9.98;;;;;;;;;;5131596;28;20391;-85
2022/12/14 14:41:31;;;;;;;17.67;10.25;;;;;;;;;;5114077;28;20047;-86
2022/12/14 14:44:02;;;;;;;18.67;10.18;;;;;;;;;;5132014;27;20411;-86
2022/12/14 14:46:35;;;;;;;17.50;9.70;;;;;;;;;;5130767;27;20047;-86
2022/12/14 14:49:01;;;;;;;15.55;9.75;;;;;;;;;;5132849;27;20035;-87